sensor_id;sensor_type;location;lat;lon;timestamp;pressure;altitude;pressure_sealevel;temperature;humidity
76746;BME280;65671;49.976;20.038;2023-11-21T07:34:55;97230.19;;;7.72;100.00
76746;BME280;65671;49.976;20.038;2023-11-21T07:37:22;97227.09;;;7.73;100.00
76746;BME280;65671;49.976;20.038;2023-11-21T07:39:48;97225.19;;;7.63;100.00
76746;BME280;65671;49.976;20.038;2023-11-21T07:42:13;97241.31;;;7.81;100.00
76746;BME280;65671;49.976;20.038;2023-11-21T07:44:39;97221.38;;;7.54;100.00
76746;BME280;65671;49.976;20.038;2023-11-21T07:47:05;97226.72;;;7.68;100.00
76746;BME280;65671;49.976;20.038;2023-11-21T07:49:30;97222.53;;;7.60;100.00
76746;BME280;65671;49.976;20.038;2023-11-21T07:51:56;97226.75;;;7.64;100.00
76746;BME280;65671;49.976;20.038;2023-11-21T07:54:21;97214.06;;;7.54;100.00
76746;BME280;65671;49.976;20.038;2023-11-21T07:56:47;97242.53;;;7.62;100.00
76746;BME280;65671;49.976;20.038;2023-11-21T07:59:13;97241.75;;;7.62;100.00
76746;BME280;65671;49.976;20.038;2023-11-21T08:05:17;97230.59;;;7.67;100.00
76746;BME280;65671;49.976;20.038;2023-11-21T08:11:18;97243.28;;;7.66;100.00
76746;BME280;65671;49.976;20.038;2023-11-21T13:29:10;97319.47;;;8.71;100.00
76746;BME280;65671;49.976;20.038;2023-11-21T13:31:52;97323.38;;;8.67;100.00
76746;BME280;65671;49.976;20.038;2023-11-21T13:37:34;97315.19;;;8.81;100.00
76746;BME280;65671;49.976;20.038;2023-11-21T18:08:14;97502.28;;;7.33;100.00
76746;BME280;65671;49.976;20.038;2023-11-21T18:10:55;97478.03;;;7.22;100.00
76746;BME280;65671;49.976;20.038;2023-11-21T18:24:21;97505.34;;;7.39;100.00
76746;BME280;65671;49.976;20.038;2023-11-21T18:30:36;97515.53;;;6.73;100.00
76746;BME280;65671;49.976;20.038;2023-11-21T18:33:30;97502.19;;;6.22;100.00
76746;BME280;65671;49.976;20.038;2023-11-21T18:36:14;97530.78;;;5.97;100.00
76746;BME280;65671;49.976;20.038;2023-11-21T18:56:42;97538.75;;;4.79;100.00
76746;BME280;65671;49.976;20.038;2023-11-21T19:38:43;97629.81;;;3.78;100.00
76746;BME280;65671;49.976;20.038;2023-11-21T19:41:15;97635.34;;;3.66;100.00
76746;BME280;65671;49.976;20.038;2023-11-21T19:43:44;97645.63;;;3.64;100.00
76746;BME280;65671;49.976;20.038;2023-11-21T19:46:11;97638.25;;;3.38;100.00
76746;BME280;65671;49.976;20.038;2023-11-21T19:48:37;97647.03;;;3.58;100.00
76746;BME280;65671;49.976;20.038;2023-11-21T19:51:03;97648.81;;;3.50;100.00
76746;BME280;65671;49.976;20.038;2023-11-21T19:53:30;97661.16;;;3.35;100.00
76746;BME280;65671;49.976;20.038;2023-11-21T19:55:57;97655.63;;;3.28;100.00
76746;BME280;65671;49.976;20.038;2023-11-21T19:58:23;97661.97;;;3.39;100.00
76746;BME280;65671;49.976;20.038;2023-11-21T20:00:50;97663.16;;;3.23;100.00
76746;BME280;65671;49.976;20.038;2023-11-21T20:03:16;97667.38;;;3.05;100.00
76746;BME280;65671;49.976;20.038;2023-11-21T20:05:45;97674.13;;;2.99;100.00
76746;BME280;65671;49.976;20.038;2023-11-21T20:08:12;97671.31;;;2.92;100.00
76746;BME280;65671;49.976;20.038;2023-11-21T20:10:40;97673.53;;;2.90;100.00
76746;BME280;65671;49.976;20.038;2023-11-21T20:13:05;97680.44;;;2.91;100.00
76746;BME280;65671;49.976;20.038;2023-11-21T20:15:33;97676.34;;;2.77;100.00
76746;BME280;65671;49.976;20.038;2023-11-21T20:17:59;97686.66;;;2.79;100.00
76746;BME280;65671;49.976;20.038;2023-11-21T20:20:24;97689.25;;;2.75;100.00
76746;BME280;65671;49.976;20.038;2023-11-21T20:22:50;97688.50;;;2.59;100.00
76746;BME280;65671;49.976;20.038;2023-11-21T20:25:17;97699.34;;;2.66;100.00
76746;BME280;65671;49.976;20.038;2023-11-21T20:27:46;97694.69;;;2.63;100.00
76746;BME280;65671;49.976;20.038;2023-11-21T20:30:12;97708.06;;;2.63;100.00
76746;BME280;65671;49.976;20.038;2023-11-21T20:32:38;97711.59;;;2.67;100.00
76746;BME280;65671;49.976;20.038;2023-11-21T20:35:03;97704.63;;;2.47;100.00
76746;BME280;65671;49.976;20.038;2023-11-21T20:37:31;97712.81;;;2.54;100.00
76746;BME280;65671;49.976;20.038;2023-11-21T20:39:59;97712.31;;;2.33;100.00
76746;BME280;65671;49.976;20.038;2023-11-21T20:42:26;97719.38;;;2.57;100.00
76746;BME280;65671;49.976;20.038;2023-11-21T20:44:55;97726.19;;;2.70;100.00
76746;BME280;65671;49.976;20.038;2023-11-21T20:47:21;97721.84;;;2.34;100.00
76746;BME280;65671;49.976;20.038;2023-11-21T20:49:46;97735.22;;;2.34;100.00
76746;BME280;65671;49.976;20.038;2023-11-21T20:52:12;97731.53;;;2.39;100.00
76746;BME280;65671;49.976;20.038;2023-11-21T20:54:37;97740.28;;;2.39;100.00
76746;BME280;65671;49.976;20.038;2023-11-21T20:57:04;97739.63;;;2.27;100.00
76746;BME280;65671;49.976;20.038;2023-11-21T20:59:31;97742.13;;;2.35;100.00
76746;BME280;65671;49.976;20.038;2023-11-21T21:01:57;97733.50;;;2.42;100.00
76746;BME280;65671;49.976;20.038;2023-11-21T21:04:22;97742.09;;;2.19;100.00
76746;BME280;65671;49.976;20.038;2023-11-21T21:06:48;97740.31;;;2.23;100.00
76746;BME280;65671;49.976;20.038;2023-11-21T21:09:13;97734.28;;;2.27;100.00
76746;BME280;65671;49.976;20.038;2023-11-21T21:11:39;97740.53;;;2.03;100.00
76746;BME280;65671;49.976;20.038;2023-11-21T21:14:05;97743.97;;;2.19;100.00
76746;BME280;65671;49.976;20.038;2023-11-21T21:16:31;97743.53;;;2.01;100.00
76746;BME280;65671;49.976;20.038;2023-11-21T21:18:57;97760.63;;;2.12;100.00
76746;BME280;65671;49.976;20.038;2023-11-21T21:21:25;97762.88;;;1.98;100.00
76746;BME280;65671;49.976;20.038;2023-11-21T21:23:51;97772.25;;;1.92;100.00
76746;BME280;65671;49.976;20.038;2023-11-21T21:26:17;97772.47;;;1.99;100.00
76746;BME280;65671;49.976;20.038;2023-11-21T21:28:49;97780.63;;;2.18;100.00
76746;BME280;65671;49.976;20.038;2023-11-21T21:31:15;97778.69;;;2.19;100.00
76746;BME280;65671;49.976;20.038;2023-11-21T21:33:40;97783.78;;;2.08;100.00
76746;BME280;65671;49.976;20.038;2023-11-21T21:36:09;97795.72;;;1.99;100.00
76746;BME280;65671;49.976;20.038;2023-11-21T21:38:35;97791.59;;;1.74;100.00
76746;BME280;65671;49.976;20.038;2023-11-21T21:41:01;97800.63;;;1.97;100.00
76746;BME280;65671;49.976;20.038;2023-11-21T21:43:27;97801.09;;;1.87;100.00
76746;BME280;65671;49.976;20.038;2023-11-21T21:45:52;97811.78;;;2.14;100.00
76746;BME280;65671;49.976;20.038;2023-11-21T21:48:18;97812.34;;;1.80;100.00
76746;BME280;65671;49.976;20.038;2023-11-21T21:50:43;97811.09;;;1.90;100.00
76746;BME280;65671;49.976;20.038;2023-11-21T21:53:09;97817.97;;;2.03;100.00
76746;BME280;65671;49.976;20.038;2023-11-21T21:55:40;97822.34;;;1.83;100.00
76746;BME280;65671;49.976;20.038;2023-11-21T21:58:06;97826.72;;;1.76;100.00
76746;BME280;65671;49.976;20.038;2023-11-21T22:00:33;97827.56;;;1.92;100.00
76746;BME280;65671;49.976;20.038;2023-11-21T22:02:59;97843.53;;;1.64;100.00
76746;BME280;65671;49.976;20.038;2023-11-21T22:05:27;97836.72;;;1.79;100.00
76746;BME280;65671;49.976;20.038;2023-11-21T22:07:53;97851.16;;;1.78;100.00
76746;BME280;65671;49.976;20.038;2023-11-21T22:10:18;97853.41;;;1.76;100.00
76746;BME280;65671;49.976;20.038;2023-11-21T22:12:44;97857.31;;;1.54;100.00
76746;BME280;65671;49.976;20.038;2023-11-21T22:15:09;97850.22;;;1.46;100.00
76746;BME280;65671;49.976;20.038;2023-11-21T22:17:35;97850.31;;;1.49;100.00
76746;BME280;65671;49.976;20.038;2023-11-21T22:20:00;97866.34;;;1.49;100.00
76746;BME280;65671;49.976;20.038;2023-11-21T22:22:26;97868.50;;;1.84;100.00
76746;BME280;65671;49.976;20.038;2023-11-21T22:24:52;97875.81;;;1.99;100.00
76746;BME280;65671;49.976;20.038;2023-11-21T22:27:18;97883.00;;;1.71;100.00
76746;BME280;65671;49.976;20.038;2023-11-21T22:29:44;97884.66;;;1.51;100.00
76746;BME280;65671;49.976;20.038;2023-11-21T22:32:10;97888.56;;;1.53;100.00
76746;BME280;65671;49.976;20.038;2023-11-21T22:34:36;97896.34;;;1.46;100.00
76746;BME280;65671;49.976;20.038;2023-11-21T22:37:02;97897.69;;;1.52;100.00
76746;BME280;65671;49.976;20.038;2023-11-21T22:39:27;97901.34;;;1.48;100.00
76746;BME280;65671;49.976;20.038;2023-11-21T22:41:53;97903.00;;;1.16;100.00
76746;BME280;65671;49.976;20.038;2023-11-21T22:44:20;97895.44;;;1.30;100.00
76746;BME280;65671;49.976;20.038;2023-11-21T22:46:46;97901.91;;;1.41;100.00
76746;BME280;65671;49.976;20.038;2023-11-21T22:49:12;97909.78;;;1.26;100.00
76746;BME280;65671;49.976;20.038;2023-11-21T22:51:41;97914.91;;;1.55;100.00
76746;BME280;65671;49.976;20.038;2023-11-21T22:54:07;97913.13;;;1.35;100.00
76746;BME280;65671;49.976;20.038;2023-11-21T22:56:33;97920.69;;;1.33;100.00
76746;BME280;65671;49.976;20.038;2023-11-21T22:58:58;97925.25;;;1.20;100.00
76746;BME280;65671;49.976;20.038;2023-11-21T23:01:25;97928.47;;;1.62;100.00
76746;BME280;65671;49.976;20.038;2023-11-21T23:03:50;97935.69;;;1.25;100.00
76746;BME280;65671;49.976;20.038;2023-11-21T23:06:16;97945.44;;;1.21;100.00
76746;BME280;65671;49.976;20.038;2023-11-21T23:08:42;97941.84;;;0.60;100.00
76746;BME280;65671;49.976;20.038;2023-11-21T23:11:09;97947.94;;;0.61;100.00
76746;BME280;65671;49.976;20.038;2023-11-21T23:13:37;97950.22;;;0.71;100.00
76746;BME280;65671;49.976;20.038;2023-11-21T23:16:02;97952.81;;;0.79;100.00
76746;BME280;65671;49.976;20.038;2023-11-21T23:18:28;97955.72;;;0.66;100.00
76746;BME280;65671;49.976;20.038;2023-11-21T23:20:57;97965.88;;;0.51;100.00
76746;BME280;65671;49.976;20.038;2023-11-21T23:23:24;97963.66;;;0.74;100.00
76746;BME280;65671;49.976;20.038;2023-11-21T23:25:50;97962.50;;;0.42;100.00
76746;BME280;65671;49.976;20.038;2023-11-21T23:28:17;97973.16;;;0.42;100.00
76746;BME280;65671;49.976;20.038;2023-11-21T23:30:48;97961.88;;;0.45;100.00
76746;BME280;65671;49.976;20.038;2023-11-21T23:33:14;97979.00;;;0.36;100.00
76746;BME280;65671;49.976;20.038;2023-11-21T23:35:55;97977.97;;;0.28;100.00
76746;BME280;65671;49.976;20.038;2023-11-21T23:38:21;97989.13;;;0.22;100.00
76746;BME280;65671;49.976;20.038;2023-11-21T23:40:46;97981.75;;;0.48;100.00
76746;BME280;65671;49.976;20.038;2023-11-21T23:43:12;97978.69;;;0.58;100.00
76746;BME280;65671;49.976;20.038;2023-11-21T23:45:38;97981.81;;;0.60;100.00
76746;BME280;65671;49.976;20.038;2023-11-21T23:48:04;97993.38;;;0.23;100.00
76746;BME280;65671;49.976;20.038;2023-11-21T23:50:29;97988.25;;;0.38;100.00
76746;BME280;65671;49.976;20.038;2023-11-21T23:52:55;97981.34;;;0.79;100.00
76746;BME280;65671;49.976;20.038;2023-11-21T23:55:20;97986.75;;;0.49;100.00
76746;BME280;65671;49.976;20.038;2023-11-21T23:57:46;97994.91;;;0.24;100.00
